Kosse, Texas
Current Conditions -  °F | °C
As of 3:35 PM on Wednesday 17 Dec 2014 (Local Time) from KLXY Reporting Station
Overcast Overcast  
Wind Chill: 44°   Ceiling: 2800
Heat Index: 49°   Visibility: 10mi
Dew Point: 38°   Wind: 10mph
Humidity: 68%   Direction: 100°E
Pressure: 30.05"   Gusts: NA
Location:  31.31°N, 96.63°W
Report Text: KLXY 172135Z AUTO 10009KT 10SM BKN028 OVC032 09/04 A3005 RMK AO2 LTG DSNT S T00930036
Loading
Personal Weather Stations






























Interactive Weather Map New forecast layout! Learn more

10-Day Weather Forecast

Advertisements
Track Severe Weather on mobile